Windsor, Pennsylvania
Current Conditions -  °F | °C
As of 7:53 PM on Monday 22 Dec 2014 (Local Time) from KTHV Reporting Station
Moderate Rain Moderate Rain  
Wind Chill: 27°   Ceiling: 1700
Heat Index: 33°   Visibility: 1.5mi
Dew Point: 31°   Wind: 7mph
Humidity: 92%   Direction: 280°W
Pressure: 30.18"   Gusts: NA
Location:  39.92°N, 76.58°W
Report Text: KTHV 230053Z AUTO 28006KT 1 1/2SM RA BR SCT004 OVC017 01/M01 A3018 RMK AO2 SLP230 P0003 T00061006
Loading
Personal Weather Stations






























Interactive Weather Map New forecast layout! Learn more

10-Day Weather Forecast

Advertisements
Track Severe Weather on mobile